sensor_id;sensor_type;location;lat;lon;timestamp;P1;durP1;ratioP1;P2;durP2;ratioP2
21621;SDS011;10973;46.706;12.340;2022-08-27T00:01:26;5.33;;;4.80;;
21621;SDS011;10973;46.706;12.340;2022-08-27T00:07:24;6.57;;;4.87;;
21621;SDS011;10973;46.706;12.340;2022-08-27T00:09:51;6.43;;;5.03;;
21621;SDS011;10973;46.706;12.340;2022-08-27T00:14:52;5.93;;;4.43;;
21621;SDS011;10973;46.706;12.340;2022-08-27T00:21:20;4.87;;;4.40;;
21621;SDS011;10973;46.706;12.340;2022-08-27T00:23:48;4.97;;;4.57;;
21621;SDS011;10973;46.706;12.340;2022-08-27T00:26:15;5.17;;;4.17;;
21621;SDS011;10973;46.706;12.340;2022-08-27T00:32:43;9.77;;;4.50;;
21621;SDS011;10973;46.706;12.340;2022-08-27T00:35:11;5.13;;;4.53;;
21621;SDS011;10973;46.706;12.340;2022-08-27T00:40:32;5.27;;;4.73;;
21621;SDS011;10973;46.706;12.340;2022-08-27T00:47:11;5.33;;;4.43;;
21621;SDS011;10973;46.706;12.340;2022-08-27T00:59:27;5.40;;;4.90;;
21621;SDS011;10973;46.706;12.340;2022-08-27T01:01:55;6.17;;;5.47;;
21621;SDS011;10973;46.706;12.340;2022-08-27T01:04:24;5.37;;;4.80;;
21621;SDS011;10973;46.706;12.340;2022-08-27T01:13:34;5.53;;;5.13;;
21621;SDS011;10973;46.706;12.340;2022-08-27T01:26:38;5.37;;;4.90;;
21621;SDS011;10973;46.706;12.340;2022-08-27T01:29:07;5.53;;;5.03;;
21621;SDS011;10973;46.706;12.340;2022-08-27T01:31:35;6.20;;;5.60;;
21621;SDS011;10973;46.706;12.340;2022-08-27T01:42:27;11.70;;;7.23;;
21621;SDS011;10973;46.706;12.340;2022-08-27T01:47:34;10.07;;;8.10;;
21621;SDS011;10973;46.706;12.340;2022-08-27T01:50:07;9.13;;;6.90;;
21621;SDS011;10973;46.706;12.340;2022-08-27T01:52:43;6.90;;;6.30;;
21621;SDS011;10973;46.706;12.340;2022-08-27T01:58:00;7.37;;;6.50;;
21621;SDS011;10973;46.706;12.340;2022-08-27T02:08:09;6.83;;;5.30;;
21621;SDS011;10973;46.706;12.340;2022-08-27T02:10:39;6.00;;;4.23;;
21621;SDS011;10973;46.706;12.340;2022-08-27T02:17:07;4.90;;;4.30;;
21621;SDS011;10973;46.706;12.340;2022-08-27T02:19:34;4.70;;;3.60;;
21621;SDS011;10973;46.706;12.340;2022-08-27T02:22:01;6.10;;;4.27;;
21621;SDS011;10973;46.706;12.340;2022-08-27T02:24:29;5.83;;;3.90;;
21621;SDS011;10973;46.706;12.340;2022-08-27T02:30:56;3.80;;;3.50;;
21621;SDS011;10973;46.706;12.340;2022-08-27T02:41:32;3.97;;;3.60;;
21621;SDS011;10973;46.706;12.340;2022-08-27T02:43:59;3.60;;;3.30;;
21621;SDS011;10973;46.706;12.340;2022-08-27T02:53:07;6.97;;;4.00;;
21621;SDS011;10973;46.706;12.340;2022-08-27T02:59:44;6.23;;;4.77;;
21621;SDS011;10973;46.706;12.340;2022-08-27T03:05:17;4.47;;;3.37;;
21621;SDS011;10973;46.706;12.340;2022-08-27T03:11:57;6.13;;;3.63;;
21621;SDS011;10973;46.706;12.340;2022-08-27T03:14:24;3.70;;;3.40;;
21621;SDS011;10973;46.706;12.340;2022-08-27T03:20:52;3.67;;;3.40;;
21621;SDS011;10973;46.706;12.340;2022-08-27T03:23:23;4.17;;;3.40;;
21621;SDS011;10973;46.706;12.340;2022-08-27T03:30:06;5.10;;;3.97;;
21621;SDS011;10973;46.706;12.340;2022-08-27T03:36:54;3.70;;;3.40;;
21621;SDS011;10973;46.706;12.340;2022-08-27T03:39:21;5.23;;;3.70;;
21621;SDS011;10973;46.706;12.340;2022-08-27T03:59:20;5.40;;;4.90;;
21621;SDS011;10973;46.706;12.340;2022-08-27T04:01:48;5.90;;;4.37;;
21621;SDS011;10973;46.706;12.340;2022-08-27T04:04:15;5.30;;;4.80;;
21621;SDS011;10973;46.706;12.340;2022-08-27T04:10:56;9.93;;;8.93;;
21621;SDS011;10973;46.706;12.340;2022-08-27T04:17:23;5.47;;;5.03;;
21621;SDS011;10973;46.706;12.340;2022-08-27T04:19:51;5.30;;;4.80;;
21621;SDS011;10973;46.706;12.340;2022-08-27T04:30:37;4.90;;;4.50;;
21621;SDS011;10973;46.706;12.340;2022-08-27T04:33:06;5.40;;;5.00;;
21621;SDS011;10973;46.706;12.340;2022-08-27T04:35:33;5.70;;;5.30;;
21621;SDS011;10973;46.706;12.340;2022-08-27T04:38:00;6.00;;;5.50;;
21621;SDS011;10973;46.706;12.340;2022-08-27T04:44:30;5.47;;;5.07;;
21621;SDS011;10973;46.706;12.340;2022-08-27T04:46:59;5.30;;;4.90;;
21621;SDS011;10973;46.706;12.340;2022-08-27T04:53:27;5.80;;;5.20;;
21621;SDS011;10973;46.706;12.340;2022-08-27T04:55:55;6.30;;;5.80;;
21621;SDS011;10973;46.706;12.340;2022-08-27T05:02:22;5.20;;;4.80;;
21621;SDS011;10973;46.706;12.340;2022-08-27T05:04:49;5.43;;;4.97;;
21621;SDS011;10973;46.706;12.340;2022-08-27T05:13:34;5.30;;;4.80;;
21621;SDS011;10973;46.706;12.340;2022-08-27T05:20:02;8.03;;;7.23;;
21621;SDS011;10973;46.706;12.340;2022-08-27T05:29:56;8.87;;;7.50;;
21621;SDS011;10973;46.706;12.340;2022-08-27T05:35:26;5.80;;;5.30;;
21621;SDS011;10973;46.706;12.340;2022-08-27T05:37:55;8.00;;;6.77;;
21621;SDS011;10973;46.706;12.340;2022-08-27T05:40:22;8.37;;;7.53;;
21621;SDS011;10973;46.706;12.340;2022-08-27T05:42:50;8.30;;;7.50;;
21621;SDS011;10973;46.706;12.340;2022-08-27T05:52:31;5.40;;;4.03;;
21621;SDS011;10973;46.706;12.340;2022-08-27T05:54:58;4.70;;;4.30;;
21621;SDS011;10973;46.706;12.340;2022-08-27T05:57:25;4.63;;;4.33;;
21621;SDS011;10973;46.706;12.340;2022-08-27T05:59:53;4.20;;;3.90;;
21621;SDS011;10973;46.706;12.340;2022-08-27T06:02:20;4.90;;;4.20;;
21621;SDS011;10973;46.706;12.340;2022-08-27T06:04:48;4.30;;;3.90;;
21621;SDS011;10973;46.706;12.340;2022-08-27T06:07:15;4.30;;;3.90;;
21621;SDS011;10973;46.706;12.340;2022-08-27T06:13:33;4.17;;;3.77;;
21621;SDS011;10973;46.706;12.340;2022-08-27T06:21:36;4.30;;;3.87;;
21621;SDS011;10973;46.706;12.340;2022-08-27T06:24:04;5.73;;;4.27;;
21621;SDS011;10973;46.706;12.340;2022-08-27T06:26:32;4.43;;;4.03;;
21621;SDS011;10973;46.706;12.340;2022-08-27T06:29:02;3.90;;;3.70;;
21621;SDS011;10973;46.706;12.340;2022-08-27T06:31:31;4.07;;;3.77;;
21621;SDS011;10973;46.706;12.340;2022-08-27T06:34:00;4.33;;;3.93;;
21621;SDS011;10973;46.706;12.340;2022-08-27T06:36:35;4.40;;;4.00;;
21621;SDS011;10973;46.706;12.340;2022-08-27T06:39:06;4.13;;;3.77;;
21621;SDS011;10973;46.706;12.340;2022-08-27T06:41:34;4.20;;;3.80;;
21621;SDS011;10973;46.706;12.340;2022-08-27T06:44:01;3.93;;;3.67;;
21621;SDS011;10973;46.706;12.340;2022-08-27T06:46:29;4.53;;;4.13;;
21621;SDS011;10973;46.706;12.340;2022-08-27T06:48:57;4.43;;;4.07;;
21621;SDS011;10973;46.706;12.340;2022-08-27T06:51:27;4.30;;;4.00;;
21621;SDS011;10973;46.706;12.340;2022-08-27T06:53:59;4.30;;;3.90;;
21621;SDS011;10973;46.706;12.340;2022-08-27T06:56:31;4.20;;;3.90;;
21621;SDS011;10973;46.706;12.340;2022-08-27T06:59:00;4.10;;;3.80;;
21621;SDS011;10973;46.706;12.340;2022-08-27T07:01:37;4.10;;;3.80;;
21621;SDS011;10973;46.706;12.340;2022-08-27T07:07:31;4.20;;;3.90;;
21621;SDS011;10973;46.706;12.340;2022-08-27T07:14:07;4.50;;;4.20;;
21621;SDS011;10973;46.706;12.340;2022-08-27T07:16:35;3.97;;;3.67;;
21621;SDS011;10973;46.706;12.340;2022-08-27T07:19:06;4.10;;;3.80;;
21621;SDS011;10973;46.706;12.340;2022-08-27T07:21:33;4.30;;;4.00;;
21621;SDS011;10973;46.706;12.340;2022-08-27T07:24:02;5.63;;;4.30;;
21621;SDS011;10973;46.706;12.340;2022-08-27T07:26:31;4.13;;;3.87;;
21621;SDS011;10973;46.706;12.340;2022-08-27T07:29:03;5.00;;;4.57;;
21621;SDS011;10973;46.706;12.340;2022-08-27T07:31:32;4.40;;;4.10;;
21621;SDS011;10973;46.706;12.340;2022-08-27T07:34:04;4.43;;;4.03;;
21621;SDS011;10973;46.706;12.340;2022-08-27T07:36:33;4.50;;;4.20;;
21621;SDS011;10973;46.706;12.340;2022-08-27T07:39:01;4.97;;;4.30;;
21621;SDS011;10973;46.706;12.340;2022-08-27T07:41:30;4.37;;;4.00;;
21621;SDS011;10973;46.706;12.340;2022-08-27T07:43:59;4.27;;;3.93;;
21621;SDS011;10973;46.706;12.340;2022-08-27T07:46:26;4.00;;;3.70;;
21621;SDS011;10973;46.706;12.340;2022-08-27T07:48:54;4.10;;;3.70;;
21621;SDS011;10973;46.706;12.340;2022-08-27T07:51:22;4.47;;;4.10;;
21621;SDS011;10973;46.706;12.340;2022-08-27T07:53:52;4.00;;;3.70;;
21621;SDS011;10973;46.706;12.340;2022-08-27T07:56:20;4.27;;;3.97;;
21621;SDS011;10973;46.706;12.340;2022-08-27T07:58:48;4.27;;;3.97;;
21621;SDS011;10973;46.706;12.340;2022-08-27T08:01:16;4.13;;;3.90;;
21621;SDS011;10973;46.706;12.340;2022-08-27T08:03:44;4.20;;;3.87;;
21621;SDS011;10973;46.706;12.340;2022-08-27T08:06:12;4.20;;;3.90;;
21621;SDS011;10973;46.706;12.340;2022-08-27T08:08:42;4.33;;;4.03;;
21621;SDS011;10973;46.706;12.340;2022-08-27T08:11:13;4.00;;;3.70;;
21621;SDS011;10973;46.706;12.340;2022-08-27T08:13:43;4.37;;;4.07;;
21621;SDS011;10973;46.706;12.340;2022-08-27T08:16:12;4.23;;;3.83;;
21621;SDS011;10973;46.706;12.340;2022-08-27T08:18:40;3.90;;;3.70;;
21621;SDS011;10973;46.706;12.340;2022-08-27T08:21:08;3.97;;;3.67;;
21621;SDS011;10973;46.706;12.340;2022-08-27T08:23:39;3.80;;;3.50;;
21621;SDS011;10973;46.706;12.340;2022-08-27T08:26:09;4.17;;;3.77;;
21621;SDS011;10973;46.706;12.340;2022-08-27T08:28:38;3.93;;;3.63;;
21621;SDS011;10973;46.706;12.340;2022-08-27T08:31:05;4.50;;;3.73;;
21621;SDS011;10973;46.706;12.340;2022-08-27T08:33:34;3.97;;;3.67;;
21621;SDS011;10973;46.706;12.340;2022-08-27T08:36:07;4.30;;;3.87;;
21621;SDS011;10973;46.706;12.340;2022-08-27T08:38:38;4.10;;;3.80;;
21621;SDS011;10973;46.706;12.340;2022-08-27T08:41:18;3.53;;;3.23;;
21621;SDS011;10973;46.706;12.340;2022-08-27T08:43:49;3.53;;;3.33;;
21621;SDS011;10973;46.706;12.340;2022-08-27T08:46:17;3.67;;;3.43;;
21621;SDS011;10973;46.706;12.340;2022-08-27T08:48:58;4.33;;;4.03;;
21621;SDS011;10973;46.706;12.340;2022-08-27T08:51:40;3.80;;;3.50;;
21621;SDS011;10973;46.706;12.340;2022-08-27T08:54:09;5.07;;;3.70;;
21621;SDS011;10973;46.706;12.340;2022-08-27T08:59:34;3.73;;;3.53;;
21621;SDS011;10973;46.706;12.340;2022-08-27T09:02:06;3.83;;;3.23;;
21621;SDS011;10973;46.706;12.340;2022-08-27T09:04:39;4.10;;;3.70;;
21621;SDS011;10973;46.706;12.340;2022-08-27T09:12:51;4.10;;;3.70;;
21621;SDS011;10973;46.706;12.340;2022-08-27T09:15:26;4.03;;;3.73;;
21621;SDS011;10973;46.706;12.340;2022-08-27T09:18:09;71.82;;;8.70;;
21621;SDS011;10973;46.706;12.340;2022-08-27T09:20:41;3.87;;;3.57;;
21621;SDS011;10973;46.706;12.340;2022-08-27T09:26:00;4.03;;;3.72;;
21621;SDS011;10973;46.706;12.340;2022-08-27T09:28:28;3.88;;;3.50;;
21621;SDS011;10973;46.706;12.340;2022-08-27T09:30:58;4.00;;;3.70;;
21621;SDS011;10973;46.706;12.340;2022-08-27T09:33:32;3.53;;;3.23;;
21621;SDS011;10973;46.706;12.340;2022-08-27T09:36:19;4.37;;;3.47;;
21621;SDS011;10973;46.706;12.340;2022-08-27T09:38:56;4.53;;;3.47;;
21621;SDS011;10973;46.706;12.340;2022-08-27T09:41:28;3.78;;;3.47;;
21621;SDS011;10973;46.706;12.340;2022-08-27T09:44:11;3.67;;;3.47;;
21621;SDS011;10973;46.706;12.340;2022-08-27T09:46:51;5.28;;;3.80;;
21621;SDS011;10973;46.706;12.340;2022-08-27T09:49:25;3.58;;;3.38;;
21621;SDS011;10973;46.706;12.340;2022-08-27T09:51:54;3.50;;;3.30;;
21621;SDS011;10973;46.706;12.340;2022-08-27T09:54:29;3.50;;;3.30;;
21621;SDS011;10973;46.706;12.340;2022-08-27T09:57:11;3.50;;;3.20;;
21621;SDS011;10973;46.706;12.340;2022-08-27T09:59:59;2.88;;;2.78;;
21621;SDS011;10973;46.706;12.340;2022-08-27T10:02:29;3.35;;;2.92;;
21621;SDS011;10973;46.706;12.340;2022-08-27T10:04:57;4.00;;;3.30;;
21621;SDS011;10973;46.706;12.340;2022-08-27T10:07:47;3.47;;;3.28;;
21621;SDS011;10973;46.706;12.340;2022-08-27T10:10:23;3.05;;;2.85;;
21621;SDS011;10973;46.706;12.340;2022-08-27T10:14:32;3.90;;;3.10;;
21621;SDS011;10973;46.706;12.340;2022-08-27T10:16:35;3.38;;;3.17;;
21621;SDS011;10973;46.706;12.340;2022-08-27T10:37:11;3.33;;;3.03;;
21621;SDS011;10973;46.706;12.340;2022-08-27T10:43:15;3.17;;;2.97;;
21621;SDS011;10973;46.706;12.340;2022-08-27T10:46:21;3.00;;;2.80;;
21621;SDS011;10973;46.706;12.340;2022-08-27T10:49:26;3.40;;;3.20;;
21621;SDS011;10973;46.706;12.340;2022-08-27T10:52:35;3.35;;;2.85;;
21621;SDS011;10973;46.706;12.340;2022-08-27T10:55:28;3.13;;;2.92;;
21621;SDS011;10973;46.706;12.340;2022-08-27T11:04:12;3.40;;;3.10;;
21621;SDS011;10973;46.706;12.340;2022-08-27T11:12:27;3.47;;;3.25;;
21621;SDS011;10973;46.706;12.340;2022-08-27T11:20:51;3.40;;;3.20;;
21621;SDS011;10973;46.706;12.340;2022-08-27T11:23:39;4.05;;;3.33;;
21621;SDS011;10973;46.706;12.340;2022-08-27T11:26:19;2.95;;;2.75;;
21621;SDS011;10973;46.706;12.340;2022-08-27T11:28:51;5.32;;;3.30;;
21621;SDS011;10973;46.706;12.340;2022-08-27T11:31:36;3.60;;;3.30;;
21621;SDS011;10973;46.706;12.340;2022-08-27T11:34:26;3.97;;;3.78;;
21621;SDS011;10973;46.706;12.340;2022-08-27T11:40:05;4.07;;;3.78;;
21621;SDS011;10973;46.706;12.340;2022-08-27T11:43:02;4.75;;;4.15;;
21621;SDS011;10973;46.706;12.340;2022-08-27T11:45:50;5.10;;;4.20;;
21621;SDS011;10973;46.706;12.340;2022-08-27T11:48:32;5.30;;;4.75;;
21621;SDS011;10973;46.706;12.340;2022-08-27T11:51:24;4.78;;;4.22;;
21621;SDS011;10973;46.706;12.340;2022-08-27T11:54:03;5.22;;;4.82;;
21621;SDS011;10973;46.706;12.340;2022-08-27T11:56:39;5.20;;;4.85;;
21621;SDS011;10973;46.706;12.340;2022-08-27T11:59:27;5.70;;;4.90;;
21621;SDS011;10973;46.706;12.340;2022-08-27T12:07:54;4.55;;;4.20;;
21621;SDS011;10973;46.706;12.340;2022-08-27T12:10:36;6.28;;;4.75;;
21621;SDS011;10973;46.706;12.340;2022-08-27T12:21:14;6.05;;;4.80;;
21621;SDS011;10973;46.706;12.340;2022-08-27T12:26:34;4.70;;;4.38;;
21621;SDS011;10973;46.706;12.340;2022-08-27T12:32:17;5.43;;;5.03;;
21621;SDS011;10973;46.706;12.340;2022-08-27T12:35:08;5.75;;;4.90;;
21621;SDS011;10973;46.706;12.340;2022-08-27T12:38:11;5.40;;;4.90;;
21621;SDS011;10973;46.706;12.340;2022-08-27T12:43:23;4.63;;;4.22;;
21621;SDS011;10973;46.706;12.340;2022-08-27T12:45:57;4.97;;;4.57;;
21621;SDS011;10973;46.706;12.340;2022-08-27T12:48:50;5.70;;;4.95;;
21621;SDS011;10973;46.706;12.340;2022-08-27T12:51:47;5.03;;;4.53;;
21621;SDS011;10973;46.706;12.340;2022-08-27T13:00:14;6.28;;;4.90;;
21621;SDS011;10973;46.706;12.340;2022-08-27T13:05:34;6.38;;;4.93;;
21621;SDS011;10973;46.706;12.340;2022-08-27T13:08:20;5.07;;;4.60;;
21621;SDS011;10973;46.706;12.340;2022-08-27T13:10:55;5.22;;;4.72;;
21621;SDS011;10973;46.706;12.340;2022-08-27T13:14:05;5.97;;;4.68;;
21621;SDS011;10973;46.706;12.340;2022-08-27T13:16:45;5.03;;;4.57;;
21621;SDS011;10973;46.706;12.340;2022-08-27T13:19:33;5.30;;;4.80;;
21621;SDS011;10973;46.706;12.340;2022-08-27T13:22:09;4.90;;;4.30;;
21621;SDS011;10973;46.706;12.340;2022-08-27T13:24:47;5.22;;;4.72;;
21621;SDS011;10973;46.706;12.340;2022-08-27T13:27:21;6.63;;;5.40;;
21621;SDS011;10973;46.706;12.340;2022-08-27T13:29:57;6.60;;;5.38;;
21621;SDS011;10973;46.706;12.340;2022-08-27T13:32:37;5.25;;;4.75;;
21621;SDS011;10973;46.706;12.340;2022-08-27T13:35:06;5.50;;;5.00;;
21621;SDS011;10973;46.706;12.340;2022-08-27T13:37:41;5.35;;;4.85;;
21621;SDS011;10973;46.706;12.340;2022-08-27T13:40:25;6.43;;;4.95;;
21621;SDS011;10973;46.706;12.340;2022-08-27T13:43:01;7.47;;;5.03;;
21621;SDS011;10973;46.706;12.340;2022-08-27T13:45:37;5.55;;;5.05;;
21621;SDS011;10973;46.706;12.340;2022-08-27T13:48:06;5.25;;;4.85;;
21621;SDS011;10973;46.706;12.340;2022-08-27T13:50:38;5.32;;;4.93;;
21621;SDS011;10973;46.706;12.340;2022-08-27T13:53:19;5.38;;;4.88;;
21621;SDS011;10973;46.706;12.340;2022-08-27T13:55:53;5.45;;;5.03;;
21621;SDS011;10973;46.706;12.340;2022-08-27T13:58:25;5.15;;;4.70;;
21621;SDS011;10973;46.706;12.340;2022-08-27T14:01:07;4.57;;;4.22;;
21621;SDS011;10973;46.706;12.340;2022-08-27T14:03:59;4.47;;;4.13;;
21621;SDS011;10973;46.706;12.340;2022-08-27T14:06:43;4.15;;;3.95;;
21621;SDS011;10973;46.706;12.340;2022-08-27T14:09:18;4.15;;;3.65;;
21621;SDS011;10973;46.706;12.340;2022-08-27T14:12:00;3.25;;;3.05;;
21621;SDS011;10973;46.706;12.340;2022-08-27T14:14:35;3.45;;;3.15;;
21621;SDS011;10973;46.706;12.340;2022-08-27T14:17:18;3.00;;;2.90;;
21621;SDS011;10973;46.706;12.340;2022-08-27T14:19:59;3.55;;;3.30;;
21621;SDS011;10973;46.706;12.340;2022-08-27T14:22:29;3.53;;;3.33;;
21621;SDS011;10973;46.706;12.340;2022-08-27T14:24:57;3.47;;;3.28;;
21621;SDS011;10973;46.706;12.340;2022-08-27T14:27:24;3.92;;;3.60;;
21621;SDS011;10973;46.706;12.340;2022-08-27T14:29:51;3.47;;;3.17;;
21621;SDS011;10973;46.706;12.340;2022-08-27T14:32:18;4.03;;;3.72;;
21621;SDS011;10973;46.706;12.340;2022-08-27T14:34:46;3.80;;;3.50;;
21621;SDS011;10973;46.706;12.340;2022-08-27T14:37:13;3.65;;;3.45;;
21621;SDS011;10973;46.706;12.340;2022-08-27T14:39:41;3.13;;;2.90;;
21621;SDS011;10973;46.706;12.340;2022-08-27T14:42:11;3.95;;;3.00;;
21621;SDS011;10973;46.706;12.340;2022-08-27T14:44:39;10.83;;;4.00;;
21621;SDS011;10973;46.706;12.340;2022-08-27T14:47:06;88.15;;;11.73;;
21621;SDS011;10973;46.706;12.340;2022-08-27T14:49:37;3.80;;;3.50;;
21621;SDS011;10973;46.706;12.340;2022-08-27T14:52:11;3.20;;;3.00;;
21621;SDS011;10973;46.706;12.340;2022-08-27T14:54:40;3.47;;;3.27;;
21621;SDS011;10973;46.706;12.340;2022-08-27T14:57:09;3.57;;;3.30;;
21621;SDS011;10973;46.706;12.340;2022-08-27T15:07:46;3.97;;;3.67;;
21621;SDS011;10973;46.706;12.340;2022-08-27T15:13:46;3.50;;;3.30;;
21621;SDS011;10973;46.706;12.340;2022-08-27T15:20:07;3.80;;;3.55;;
21621;SDS011;10973;46.706;12.340;2022-08-27T15:22:47;4.78;;;3.90;;
21621;SDS011;10973;46.706;12.340;2022-08-27T15:29:06;4.55;;;4.15;;
21621;SDS011;10973;46.706;12.340;2022-08-27T15:35:34;4.82;;;4.43;;
21621;SDS011;10973;46.706;12.340;2022-08-27T15:38:01;4.80;;;4.35;;
21621;SDS011;10973;46.706;12.340;2022-08-27T15:40:30;5.00;;;4.60;;
21621;SDS011;10973;46.706;12.340;2022-08-27T15:43:02;5.40;;;4.90;;
21621;SDS011;10973;46.706;12.340;2022-08-27T15:45:32;5.13;;;4.63;;
21621;SDS011;10973;46.706;12.340;2022-08-27T15:47:59;5.22;;;4.72;;
21621;SDS011;10973;46.706;12.340;2022-08-27T15:50:27;5.18;;;4.78;;
21621;SDS011;10973;46.706;12.340;2022-08-27T15:53:02;4.20;;;3.90;;
21621;SDS011;10973;46.706;12.340;2022-08-27T16:03:49;4.25;;;3.83;;
21621;SDS011;10973;46.706;12.340;2022-08-27T16:06:26;4.13;;;3.83;;
21621;SDS011;10973;46.706;12.340;2022-08-27T16:12:53;4.07;;;3.67;;
21621;SDS011;10973;46.706;12.340;2022-08-27T16:15:20;4.05;;;3.75;;
21621;SDS011;10973;46.706;12.340;2022-08-27T16:17:48;4.38;;;4.03;;
21621;SDS011;10973;46.706;12.340;2022-08-27T16:24:22;3.88;;;3.58;;
21621;SDS011;10973;46.706;12.340;2022-08-27T16:26:49;4.28;;;3.97;;
21621;SDS011;10973;46.706;12.340;2022-08-27T16:29:16;3.90;;;3.50;;
21621;SDS011;10973;46.706;12.340;2022-08-27T16:35:43;3.75;;;3.50;;
21621;SDS011;10973;46.706;12.340;2022-08-27T16:38:11;3.95;;;3.65;;
21621;SDS011;10973;46.706;12.340;2022-08-27T16:40:40;3.65;;;3.35;;
21621;SDS011;10973;46.706;12.340;2022-08-27T16:43:16;4.15;;;3.65;;
21621;SDS011;10973;46.706;12.340;2022-08-27T16:49:56;4.25;;;3.92;;
21621;SDS011;10973;46.706;12.340;2022-08-27T16:52:23;3.90;;;3.60;;
21621;SDS011;10973;46.706;12.340;2022-08-27T16:54:50;4.50;;;3.83;;
21621;SDS011;10973;46.706;12.340;2022-08-27T17:05:03;4.25;;;3.65;;
21621;SDS011;10973;46.706;12.340;2022-08-27T17:07:52;4.10;;;3.80;;
21621;SDS011;10973;46.706;12.340;2022-08-27T17:10:21;4.47;;;3.70;;
21621;SDS011;10973;46.706;12.340;2022-08-27T17:12:48;3.85;;;3.55;;
21621;SDS011;10973;46.706;12.340;2022-08-27T17:15:16;4.05;;;3.75;;
21621;SDS011;10973;46.706;12.340;2022-08-27T17:17:44;4.27;;;3.93;;
21621;SDS011;10973;46.706;12.340;2022-08-27T17:20:12;4.40;;;3.73;;
21621;SDS011;10973;46.706;12.340;2022-08-27T17:22:39;4.78;;;4.00;;
21621;SDS011;10973;46.706;12.340;2022-08-27T17:25:07;4.10;;;3.80;;
21621;SDS011;10973;46.706;12.340;2022-08-27T17:27:35;4.10;;;3.80;;
21621;SDS011;10973;46.706;12.340;2022-08-27T17:42:04;4.47;;;4.07;;
21621;SDS011;10973;46.706;12.340;2022-08-27T17:44:33;4.43;;;4.13;;
21621;SDS011;10973;46.706;12.340;2022-08-27T17:47:03;4.20;;;3.80;;
21621;SDS011;10973;46.706;12.340;2022-08-27T17:49:33;4.90;;;4.50;;
21621;SDS011;10973;46.706;12.340;2022-08-27T17:52:04;4.28;;;3.88;;
21621;SDS011;10973;46.706;12.340;2022-08-27T17:54:37;4.70;;;4.20;;
21621;SDS011;10973;46.706;12.340;2022-08-27T18:00:08;9.10;;;4.55;;
21621;SDS011;10973;46.706;12.340;2022-08-27T18:02:41;5.03;;;4.60;;
21621;SDS011;10973;46.706;12.340;2022-08-27T18:05:12;6.73;;;4.53;;
21621;SDS011;10973;46.706;12.340;2022-08-27T18:07:42;5.27;;;4.87;;
21621;SDS011;10973;46.706;12.340;2022-08-27T18:10:11;4.82;;;4.45;;
21621;SDS011;10973;46.706;12.340;2022-08-27T18:12:44;5.60;;;5.10;;
21621;SDS011;10973;46.706;12.340;2022-08-27T18:15:17;5.23;;;4.73;;
21621;SDS011;10973;46.706;12.340;2022-08-27T18:17:54;5.63;;;5.13;;
21621;SDS011;10973;46.706;12.340;2022-08-27T18:20:23;5.00;;;4.60;;
21621;SDS011;10973;46.706;12.340;2022-08-27T18:22:54;5.37;;;4.87;;
21621;SDS011;10973;46.706;12.340;2022-08-27T18:25:23;7.03;;;5.50;;
21621;SDS011;10973;46.706;12.340;2022-08-27T18:28:00;6.23;;;4.73;;
21621;SDS011;10973;46.706;12.340;2022-08-27T18:30:32;5.70;;;5.20;;
21621;SDS011;10973;46.706;12.340;2022-08-27T18:33:00;6.17;;;5.27;;
21621;SDS011;10973;46.706;12.340;2022-08-27T18:35:29;5.67;;;5.17;;
21621;SDS011;10973;46.706;12.340;2022-08-27T18:37:59;6.25;;;5.65;;
21621;SDS011;10973;46.706;12.340;2022-08-27T18:40:28;6.57;;;5.97;;
21621;SDS011;10973;46.706;12.340;2022-08-27T18:43:03;6.17;;;5.60;;
21621;SDS011;10973;46.706;12.340;2022-08-27T18:45:31;5.67;;;5.23;;
21621;SDS011;10973;46.706;12.340;2022-08-27T18:47:58;6.07;;;5.57;;
21621;SDS011;10973;46.706;12.340;2022-08-27T18:50:25;6.37;;;5.77;;
21621;SDS011;10973;46.706;12.340;2022-08-27T18:52:54;6.23;;;5.73;;
21621;SDS011;10973;46.706;12.340;2022-08-27T18:55:23;6.97;;;6.27;;
21621;SDS011;10973;46.706;12.340;2022-08-27T18:57:52;6.40;;;5.73;;
21621;SDS011;10973;46.706;12.340;2022-08-27T19:00:20;6.57;;;5.30;;
21621;SDS011;10973;46.706;12.340;2022-08-27T19:02:48;7.27;;;5.90;;
21621;SDS011;10973;46.706;12.340;2022-08-27T19:05:25;6.27;;;5.67;;
21621;SDS011;10973;46.706;12.340;2022-08-27T19:07:56;6.13;;;5.63;;
21621;SDS011;10973;46.706;12.340;2022-08-27T19:10:23;6.13;;;5.63;;
21621;SDS011;10973;46.706;12.340;2022-08-27T19:12:52;5.90;;;5.30;;
21621;SDS011;10973;46.706;12.340;2022-08-27T19:15:19;6.30;;;5.70;;
21621;SDS011;10973;46.706;12.340;2022-08-27T19:17:51;5.50;;;5.10;;
21621;SDS011;10973;46.706;12.340;2022-08-27T19:20:22;5.80;;;5.33;;
21621;SDS011;10973;46.706;12.340;2022-08-27T19:22:50;5.67;;;5.17;;
21621;SDS011;10973;46.706;12.340;2022-08-27T19:25:17;6.33;;;5.83;;
21621;SDS011;10973;46.706;12.340;2022-08-27T19:27:44;6.30;;;5.77;;
21621;SDS011;10973;46.706;12.340;2022-08-27T19:30:13;6.03;;;5.53;;
21621;SDS011;10973;46.706;12.340;2022-08-27T19:32:42;6.20;;;5.70;;
21621;SDS011;10973;46.706;12.340;2022-08-27T19:35:09;6.83;;;6.13;;
21621;SDS011;10973;46.706;12.340;2022-08-27T19:37:38;6.70;;;6.10;;
21621;SDS011;10973;46.706;12.340;2022-08-27T19:40:18;6.67;;;6.03;;
21621;SDS011;10973;46.706;12.340;2022-08-27T19:42:48;6.80;;;6.13;;
21621;SDS011;10973;46.706;12.340;2022-08-27T19:45:16;6.37;;;5.87;;
21621;SDS011;10973;46.706;12.340;2022-08-27T19:47:48;5.50;;;5.00;;
21621;SDS011;10973;46.706;12.340;2022-08-27T19:50:18;5.80;;;5.30;;
21621;SDS011;10973;46.706;12.340;2022-08-27T19:52:48;7.07;;;5.30;;
21621;SDS011;10973;46.706;12.340;2022-08-27T19:55:17;6.13;;;5.63;;
21621;SDS011;10973;46.706;12.340;2022-08-27T19:57:45;6.13;;;5.53;;
21621;SDS011;10973;46.706;12.340;2022-08-27T20:00:14;5.83;;;5.33;;
21621;SDS011;10973;46.706;12.340;2022-08-27T20:02:45;5.97;;;5.37;;
21621;SDS011;10973;46.706;12.340;2022-08-27T20:05:16;6.30;;;5.70;;
21621;SDS011;10973;46.706;12.340;2022-08-27T20:07:46;6.00;;;5.50;;
21621;SDS011;10973;46.706;12.340;2022-08-27T20:10:16;5.80;;;5.30;;
21621;SDS011;10973;46.706;12.340;2022-08-27T20:13:02;7.63;;;5.57;;
21621;SDS011;10973;46.706;12.340;2022-08-27T20:15:31;6.33;;;5.83;;
21621;SDS011;10973;46.706;12.340;2022-08-27T20:17:59;5.90;;;5.40;;
21621;SDS011;10973;46.706;12.340;2022-08-27T20:20:28;6.00;;;5.50;;
21621;SDS011;10973;46.706;12.340;2022-08-27T20:22:57;6.67;;;5.30;;
21621;SDS011;10973;46.706;12.340;2022-08-27T20:25:25;5.80;;;5.30;;
21621;SDS011;10973;46.706;12.340;2022-08-27T20:27:52;6.27;;;5.70;;
21621;SDS011;10973;46.706;12.340;2022-08-27T20:30:21;6.37;;;5.80;;
21621;SDS011;10973;46.706;12.340;2022-08-27T20:32:51;6.93;;;6.23;;
21621;SDS011;10973;46.706;12.340;2022-08-27T20:35:19;6.93;;;6.23;;
21621;SDS011;10973;46.706;12.340;2022-08-27T20:37:47;7.43;;;6.07;;
21621;SDS011;10973;46.706;12.340;2022-08-27T20:40:17;6.30;;;5.73;;
21621;SDS011;10973;46.706;12.340;2022-08-27T20:42:51;6.20;;;5.70;;
21621;SDS011;10973;46.706;12.340;2022-08-27T20:45:18;5.63;;;5.20;;
21621;SDS011;10973;46.706;12.340;2022-08-27T20:47:46;6.43;;;5.80;;
21621;SDS011;10973;46.706;12.340;2022-08-27T20:50:18;8.43;;;6.20;;
21621;SDS011;10973;46.706;12.340;2022-08-27T20:52:50;6.60;;;6.00;;
21621;SDS011;10973;46.706;12.340;2022-08-27T20:55:18;7.67;;;5.47;;
21621;SDS011;10973;46.706;12.340;2022-08-27T20:57:46;6.40;;;5.80;;
21621;SDS011;10973;46.706;12.340;2022-08-27T21:00:13;6.73;;;6.03;;
21621;SDS011;10973;46.706;12.340;2022-08-27T21:02:40;5.90;;;5.40;;
21621;SDS011;10973;46.706;12.340;2022-08-27T21:05:09;7.60;;;5.70;;